Terminal Aerodrome Forecast
Issued by NWS Paducah, KY

Home | Current Version | Previous Version | Text Only | Print | Product List | Glossary On
Versions: 1 2 3 4 5 6 7 8 9 10 11 12 13 14 15 16 17 18
000
FTUS43 KPAH 200520
TAFEVV
TAF
KEVV 200520Z 2006/2106 01004KT P6SM BKN250
     FM201200 04007KT P6SM FEW080 BKN180
     FM201900 03009KT P6SM -SHRA SCT040 OVC080
     FM202200 02007KT 4SM -SHRA BR BKN025 OVC040
     FM210100 34004KT 4SM BR OVC012=

USA.gov is the U.S. government's official web portal to all federal, state and local government web resources and services.